Time;durP1;ratioP1;P1;durP2;ratioP2;P2;SDS_P1;SDS_P2;PMS_P1;PMS_P2;Temp;Humidity;BMP_temperature;BMP_pressure;BME280_temperature;BME280_humidity;BME280_pressure;Samples;Min_cycle;Max_cycle;Signal;HPM_P1;HPM_P2
2022/05/07 00:02:25;;;;;;;4.60;3.63;;;14.70;70.60;;;;;;4992276;28;20131;-87
2022/05/07 00:04:52;;;;;;;3.92;2.75;;;14.70;70.60;;;;;;4986520;28;20839;-87
2022/05/07 00:07:19;;;;;;;4.03;2.85;;;14.70;70.70;;;;;;4999992;28;20053;-86
2022/05/07 00:09:46;;;;;;;4.18;3.05;;;14.70;70.70;;;;;;5003493;28;20037;-87
2022/05/07 00:12:13;;;;;;;4.18;2.65;;;14.70;70.80;;;;;;5000053;28;20100;-87
2022/05/07 00:14:40;;;;;;;4.70;3.00;;;14.70;70.80;;;;;;4987477;28;20072;-86
2022/05/07 00:19:54;;;;;;;3.65;2.58;;;14.70;71.00;;;;;;4986566;28;20049;-87
2022/05/07 00:22:21;;;;;;;4.90;3.13;;;14.70;71.10;;;;;;4981593;28;20091;-86
2022/05/07 00:24:49;;;;;;;6.00;3.30;;;14.70;71.20;;;;;;5000238;28;20091;-87
2022/05/07 00:27:16;;;;;;;4.63;2.83;;;14.70;71.30;;;;;;5003231;28;20049;-87
2022/05/07 00:29:45;;;;;;;4.82;3.17;;;14.70;71.30;;;;;;5003008;28;20141;-87
2022/05/07 00:32:12;;;;;;;3.65;2.47;;;14.70;71.40;;;;;;4986999;28;20057;-87
2022/05/07 00:34:39;;;;;;;4.22;2.75;;;14.70;71.40;;;;;;5019137;28;20537;-88
2022/05/07 00:37:06;;;;;;;4.50;2.53;;;14.70;71.40;;;;;;5019546;28;20041;-88
2022/05/07 00:39:34;;;;;;;5.15;2.92;;;14.70;71.50;;;;;;5013446;28;20046;-88
2022/05/07 00:42:05;;;;;;;4.45;2.72;;;14.70;71.60;;;;;;5002878;28;20052;-88
2022/05/07 00:44:33;;;;;;;3.22;2.28;;;14.60;71.60;;;;;;5003521;28;20511;-88
2022/05/07 00:47:20;;;;;;;5.63;2.60;;;14.60;71.60;;;;;;5035427;28;20045;-88
2022/05/07 00:49:51;;;;;;;4.47;2.28;;;14.60;71.60;;;;;;4995922;28;20034;-88
2022/05/07 00:52:18;;;;;;;5.13;2.90;;;14.60;71.60;;;;;;5001932;28;20144;-88
2022/05/07 00:54:47;;;;;;;4.65;2.65;;;14.60;71.60;;;;;;5000430;28;20046;-88
2022/05/07 00:57:16;;;;;;;4.43;2.58;;;14.60;71.70;;;;;;5035446;28;20049;-89
2022/05/07 00:59:45;;;;;;;5.43;2.70;;;14.60;71.80;;;;;;5003061;28;20053;-88
2022/05/07 01:02:12;;;;;;;4.28;2.40;;;14.50;72.50;;;;;;5002852;28;20128;-88
2022/05/07 01:04:39;;;;;;;4.63;2.47;;;14.50;72.00;;;;;;5003248;28;20111;-88
2022/05/07 01:07:07;;;;;;;3.85;2.55;;;14.50;72.00;;;;;;5005028;28;20061;-88
2022/05/07 01:09:37;;;;;;;3.92;2.22;;;14.50;72.10;;;;;;4996402;28;20045;-87
2022/05/07 01:12:05;;;;;;;5.38;2.88;;;14.50;72.30;;;;;;5021985;28;20045;-87
2022/05/07 01:14:33;;;;;;;4.55;2.45;;;14.50;72.30;;;;;;4985280;28;20042;-88
2022/05/07 01:17:00;;;;;;;4.57;2.80;;;14.40;72.40;;;;;;4999243;28;20049;-88
2022/05/07 01:19:29;;;;;;;3.92;2.63;;;14.40;72.50;;;;;;4988375;28;20049;-88
2022/05/07 01:21:57;;;;;;;4.95;2.80;;;14.40;72.60;;;;;;5003695;28;20051;-88
2022/05/07 01:24:24;;;;;;;5.07;2.97;;;14.40;72.60;;;;;;5019285;28;20556;-88
2022/05/07 01:26:51;;;;;;;6.85;2.70;;;14.40;72.70;;;;;;5022055;28;20133;-88
2022/05/07 01:29:18;;;;;;;3.78;2.40;;;14.30;72.70;;;;;;4998599;28;20111;-88
2022/05/07 01:31:48;;;;;;;3.63;2.20;;;14.30;72.80;;;;;;5016014;28;20176;-87
2022/05/07 01:34:16;;;;;;;4.90;2.60;;;14.30;72.90;;;;;;5002125;28;20053;-88
2022/05/07 01:36:50;;;;;;;6.10;2.67;;;14.30;72.90;;;;;;5002839;28;20095;-88
2022/05/07 01:39:21;;;;;;;3.78;2.42;;;14.30;73.10;;;;;;5001866;28;20099;-88
2022/05/07 01:41:49;;;;;;;3.80;2.67;;;14.30;73.80;;;;;;5000890;28;20684;-88
2022/05/07 01:44:20;;;;;;;4.43;2.90;;;14.20;73.10;;;;;;4983168;28;20124;-88
2022/05/07 01:49:35;;;;;;;4.90;2.75;;;14.20;73.30;;;;;;4988107;28;20049;-88
2022/05/07 01:52:04;;;;;;;3.80;2.33;;;14.20;73.40;;;;;;4982113;28;20041;-87
2022/05/07 01:54:33;;;;;;;4.72;2.78;;;14.20;73.50;;;;;;4993175;28;20128;-88
2022/05/07 01:57:01;;;;;;;4.40;2.25;;;14.20;73.60;;;;;;5001717;28;20058;-88
2022/05/07 01:59:28;;;;;;;5.20;2.97;;;14.10;73.50;;;;;;4986013;28;20073;-87
2022/05/07 02:01:58;;;;;;;5.28;2.97;;;14.20;73.60;;;;;;5000127;28;20037;-87
2022/05/07 02:04:26;;;;;;;5.20;3.03;;;14.10;73.60;;;;;;4998768;28;20057;-86
2022/05/07 02:06:55;;;;;;;3.80;2.63;;;14.10;73.70;;;;;;4997272;28;20104;-85
2022/05/07 02:09:24;;;;;;;4.75;2.83;;;14.10;73.80;;;;;;5018667;28;20045;-86
2022/05/07 02:11:52;;;;;;;6.00;2.63;;;14.10;73.90;;;;;;4999953;28;20058;-86
2022/05/07 02:14:20;;;;;;;4.60;2.72;;;14.10;74.00;;;;;;4985878;28;20050;-87
2022/05/07 02:16:48;;;;;;;4.07;2.42;;;14.00;74.00;;;;;;4969299;28;20052;-86
2022/05/07 02:19:20;;;;;;;4.80;2.60;;;14.00;74.10;;;;;;4985746;28;20053;-87
2022/05/07 02:21:48;;;;;;;4.43;2.72;;;14.00;74.10;;;;;;4977318;28;20055;-88
2022/05/07 02:24:18;;;;;;;4.55;3.03;;;14.00;74.20;;;;;;5002049;28;20044;-87
2022/05/07 02:26:45;;;;;;;5.38;3.10;;;14.00;74.30;;;;;;5000940;28;20041;-87
2022/05/07 02:29:14;;;;;;;4.55;2.40;;;13.90;74.30;;;;;;5001717;28;20462;-87
2022/05/07 02:32:03;;;;;;;4.60;2.42;;;13.90;74.30;;;;;;4985734;28;20038;-87
2022/05/07 02:34:37;;;;;;;4.35;2.80;;;13.90;74.40;;;;;;5001895;28;20412;-87
2022/05/07 02:37:10;;;;;;;3.60;2.60;;;13.90;74.50;;;;;;5001853;28;20045;-87
2022/05/07 02:39:38;;;;;;;4.32;3.03;;;13.90;74.60;;;;;;5000869;28;20543;-87
2022/05/07 02:45:18;;;;;;;3.72;2.28;;;13.90;74.70;;;;;;4963951;28;20049;-87
2022/05/07 02:47:49;;;;;;;3.78;2.38;;;13.80;74.80;;;;;;4956284;28;20078;-87
2022/05/07 02:50:19;;;;;;;3.70;2.15;;;13.90;74.80;;;;;;4980264;28;20449;-87
2022/05/07 02:52:46;;;;;;;3.95;2.42;;;13.90;74.80;;;;;;4979026;28;20140;-87
2022/05/07 02:55:16;;;;;;;3.90;2.50;;;13.90;74.80;;;;;;4997769;28;20046;-87
2022/05/07 02:57:49;;;;;;;5.80;2.80;;;13.90;74.80;;;;;;4985777;28;20049;-86
2022/05/07 03:00:17;;;;;;;3.58;2.25;;;13.90;74.80;;;;;;5015700;28;20392;-87
2022/05/07 03:02:47;;;;;;;4.82;3.10;;;13.90;74.80;;;;;;4997088;28;20128;-87
2022/05/07 03:05:16;;;;;;;4.68;2.88;;;13.90;74.90;;;;;;5016531;28;20077;-87
2022/05/07 03:07:47;;;;;;;4.90;2.92;;;13.90;75.00;;;;;;5016731;28;20052;-87
2022/05/07 03:10:18;;;;;;;3.38;2.33;;;13.90;75.00;;;;;;5016875;28;20072;-87
2022/05/07 03:12:46;;;;;;;4.30;2.92;;;13.90;75.10;;;;;;4997131;28;20406;-87
2022/05/07 03:15:13;;;;;;;5.25;2.78;;;13.90;75.20;;;;;;4997098;28;20519;-87
2022/05/07 03:17:40;;;;;;;4.97;2.97;;;13.90;75.20;;;;;;4984757;28;20474;-87
2022/05/07 03:20:11;;;;;;;4.57;2.75;;;13.80;75.20;;;;;;5000296;28;20119;-87
2022/05/07 03:22:41;;;;;;;3.90;2.72;;;13.80;75.30;;;;;;4982486;28;20096;-86
2022/05/07 03:25:09;;;;;;;4.35;2.40;;;13.80;75.40;;;;;;5000178;28;20500;-87
2022/05/07 03:27:36;;;;;;;4.80;3.08;;;13.80;75.50;;;;;;4984063;28;20037;-86
2022/05/07 03:30:08;;;;;;;4.23;2.97;;;13.70;75.60;;;;;;4996893;28;20107;-86
2022/05/07 03:32:48;;;;;;;4.20;3.00;;;13.70;75.60;;;;;;4997843;28;20713;-87
2022/05/07 03:35:16;;;;;;;5.95;3.60;;;13.70;75.70;;;;;;4980306;28;20077;-84
2022/05/07 03:37:46;;;;;;;6.63;4.47;;;13.70;75.70;;;;;;4983837;28;20072;-83
2022/05/07 03:40:14;;;;;;;5.05;3.45;;;13.70;75.80;;;;;;4999953;28;20560;-83
2022/05/07 03:42:43;;;;;;;5.25;3.47;;;13.70;75.90;;;;;;4999373;28;20049;-83
2022/05/07 03:45:11;;;;;;;5.47;3.42;;;13.70;76.00;;;;;;4983846;28;20045;-83
2022/05/07 03:47:41;;;;;;;4.95;3.78;;;13.70;76.00;;;;;;4984049;28;20057;-83
2022/05/07 03:50:09;;;;;;;4.35;3.15;;;13.70;76.00;;;;;;5015109;28;20144;-87
2022/05/07 03:55:24;;;;;;;5.82;3.53;;;13.70;76.00;;;;;;4972773;28;20045;-86
2022/05/07 03:57:51;;;;;;;4.90;3.58;;;13.70;76.10;;;;;;4989944;28;20049;-88
2022/05/07 04:00:25;;;;;;;5.13;3.58;;;13.70;76.10;;;;;;4996899;28;20873;-83
2022/05/07 04:02:55;;;;;;;5.80;4.07;;;13.70;76.10;;;;;;4978705;28;20084;-83
2022/05/07 04:05:31;;;;;;;6.30;4.35;;;13.70;76.20;;;;;;5000929;28;20048;-82
2022/05/07 04:08:07;;;;;;;6.72;3.70;;;13.70;76.30;;;;;;4999696;28;20510;-82
2022/05/07 04:10:34;;;;;;;5.95;4.55;;;13.70;76.30;;;;;;5001104;28;20069;-83
2022/05/07 04:13:04;;;;;;;5.07;3.47;;;13.70;76.30;;;;;;5014824;28;20397;-82
2022/05/07 04:15:32;;;;;;;6.35;4.70;;;13.70;76.30;;;;;;4998705;28;20389;-82
2022/05/07 04:18:01;;;;;;;5.32;3.90;;;13.70;76.30;;;;;;4999114;28;20057;-82
2022/05/07 04:20:29;;;;;;;6.05;3.97;;;13.80;76.30;;;;;;4992203;28;20466;-82
2022/05/07 04:23:04;;;;;;;6.38;4.13;;;13.80;76.30;;;;;;4984320;28;20799;-82
2022/05/07 04:25:40;;;;;;;5.15;3.80;;;13.80;76.30;;;;;;5013960;28;20041;-82
2022/05/07 04:28:08;;;;;;;6.97;4.57;;;13.80;76.30;;;;;;5013968;28;20131;-82
2022/05/07 04:30:35;;;;;;;7.65;4.88;;;13.80;76.20;;;;;;4997155;28;20528;-81
2022/05/07 04:33:02;;;;;;;7.28;4.45;;;13.90;76.30;;;;;;5013318;28;20038;-81
2022/05/07 04:35:31;;;;;;;8.63;5.18;;;13.90;76.20;;;;;;4997286;28;20451;-83
2022/05/07 04:38:02;;;;;;;5.95;4.60;;;13.90;76.20;;;;;;4982476;28;20409;-82
2022/05/07 04:40:30;;;;;;;9.10;5.32;;;14.00;76.30;;;;;;4994616;28;20125;-88
2022/05/07 04:43:00;;;;;;;7.15;4.95;;;14.00;76.40;;;;;;4997567;28;20048;-88
2022/05/07 04:45:30;;;;;;;7.50;4.75;;;14.00;76.40;;;;;;5015224;28;20050;-88
2022/05/07 04:48:07;;;;;;;6.43;4.65;;;14.10;76.40;;;;;;5015642;28;20110;-88
2022/05/07 04:50:36;;;;;;;6.60;4.93;;;14.10;76.40;;;;;;5002308;28;20037;-88
2022/05/07 04:53:33;;;;;;;6.82;4.82;;;14.10;76.30;;;;;;5006495;28;20049;-88
2022/05/07 04:56:09;;;;;;;8.10;5.57;;;14.10;76.30;;;;;;4989261;28;20045;-88
2022/05/07 04:58:43;;;;;;;7.18;4.78;;;14.10;76.40;;;;;;5004708;28;20099;-88
2022/05/07 05:01:11;;;;;;;7.22;5.22;;;14.20;76.40;;;;;;5003400;28;20501;-88
2022/05/07 05:03:45;;;;;;;8.48;5.60;;;14.20;76.50;;;;;;5004257;28;20581;-88
2022/05/07 05:06:21;;;;;;;7.13;5.22;;;14.30;77.10;;;;;;5001432;28;20443;-88
2022/05/07 05:09:05;;;;;;;8.10;5.38;;;14.30;76.40;;;;;;4984946;28;20057;-83
2022/05/07 05:11:37;;;;;;;7.88;5.53;;;14.40;76.50;;;;;;5014430;28;20128;-82
2022/05/07 05:15:01;;;;;;;8.52;6.35;;;14.40;76.40;;;;;;4986144;28;20055;-82
2022/05/07 05:16:56;;;;;;;8.82;6.25;;;14.50;76.50;;;;;;5017598;28;20045;-82
2022/05/07 05:19:26;;;;;;;9.40;6.80;;;14.50;76.50;;;;;;5017667;28;20041;-83
2022/05/07 05:21:55;;;;;;;10.73;6.82;;;14.60;76.50;;;;;;5001577;28;20053;-82
2022/05/07 05:24:28;;;;;;;8.63;6.13;;;14.60;76.40;;;;;;5001902;28;20050;-82
2022/05/07 05:26:56;;;;;;;8.82;5.88;;;14.70;76.40;;;;;;4985609;28;20060;-83
2022/05/07 05:29:28;;;;;;;9.05;6.45;;;14.80;76.50;;;;;;5000135;28;20048;-83
2022/05/07 05:31:59;;;;;;;8.48;6.18;;;14.80;76.40;;;;;;4985353;28;20048;-82
2022/05/07 05:34:34;;;;;;;9.93;6.93;;;14.80;76.40;;;;;;5000151;28;20821;-82
2022/05/07 05:37:03;;;;;;;8.85;6.80;;;14.80;76.50;;;;;;5017002;28;20049;-82
2022/05/07 05:39:36;;;;;;;9.50;6.93;;;14.90;76.50;;;;;;4986959;28;20095;-82
2022/05/07 05:42:04;;;;;;;11.27;8.00;;;15.00;76.50;;;;;;4987415;28;20121;-82
2022/05/07 05:44:41;;;;;;;10.52;7.13;;;15.00;76.50;;;;;;5013675;28;20038;-83
2022/05/07 05:47:14;;;;;;;9.63;7.38;;;15.10;76.50;;;;;;5023051;28;20041;-82
2022/05/07 05:49:49;;;;;;;12.07;7.65;;;15.10;76.40;;;;;;5010619;28;20033;-89
2022/05/07 05:52:22;;;;;;;11.35;8.18;;;15.20;76.30;;;;;;5036105;28;20049;-88
2022/05/07 05:54:50;;;;;;;11.15;7.85;;;15.30;76.30;;;;;;4999418;28;20042;-88
2022/05/07 05:57:17;;;;;;;11.45;8.25;;;15.30;76.20;;;;;;5004023;28;20041;-88
2022/05/07 05:59:45;;;;;;;15.77;10.52;;;15.40;76.20;;;;;;4986041;28;20050;-89
2022/05/07 06:02:17;;;;;;;16.55;11.32;;;15.40;76.10;;;;;;4998550;28;20042;-83
2022/05/07 06:04:57;;;;;;;13.82;10.23;;;15.40;76.10;;;;;;5002001;28;20037;-82
2022/05/07 06:07:27;;;;;;;14.98;11.10;;;15.50;76.00;;;;;;5000783;28;20049;-82
2022/05/07 06:09:58;;;;;;;17.67;11.40;;;15.50;76.00;;;;;;5000646;28;20061;-83
2022/05/07 06:12:29;;;;;;;16.10;11.10;;;15.50;76.50;;;;;;4978750;28;20124;-83
2022/05/07 06:14:57;;;;;;;16.63;11.55;;;15.50;75.80;;;;;;5000532;28;20064;-83
2022/05/07 06:17:28;;;;;;;15.25;10.70;;;15.60;75.90;;;;;;4996225;28;20045;-84
2022/05/07 06:19:55;;;;;;;15.65;10.65;;;15.60;75.80;;;;;;4984528;28;20513;-84
2022/05/07 06:22:23;;;;;;;15.32;10.15;;;15.60;76.40;;;;;;5017293;28;20493;-84
2022/05/07 06:28:13;;;;;;;12.57;8.93;;;15.70;75.70;;;;;;5010351;28;20049;-84
2022/05/07 06:30:43;;;;;;;11.57;8.73;;;15.70;75.60;;;;;;4992638;28;20541;-84
2022/05/07 06:33:13;;;;;;;11.48;7.80;;;15.80;75.50;;;;;;4966392;28;20045;-83
2022/05/07 06:35:48;;;;;;;12.70;8.73;;;15.90;75.30;;;;;;4965086;28;20060;-84
2022/05/07 06:38:28;;;;;;;12.57;9.00;;;15.90;75.00;;;;;;4966550;28;20046;-83
2022/05/07 06:40:56;;;;;;;16.70;10.18;;;16.00;74.80;;;;;;4978640;28;20481;-82
2022/05/07 06:43:25;;;;;;;11.73;8.50;;;16.10;74.50;;;;;;4972944;28;20142;-84
2022/05/07 06:46:13;;;;;;;12.40;8.88;;;16.20;74.30;;;;;;4971862;28;20469;-88
2022/05/07 06:48:54;;;;;;;11.57;8.07;;;16.20;73.90;;;;;;4980043;28;20046;-88
2022/05/07 06:51:27;;;;;;;11.98;7.30;;;16.30;73.80;;;;;;4995424;28;20045;-88
2022/05/07 06:53:54;;;;;;;13.88;8.15;;;16.40;73.60;;;;;;4977153;28;20137;-88
2022/05/07 06:56:22;;;;;;;10.63;7.75;;;16.40;73.20;;;;;;4973441;28;20069;-88
2022/05/07 06:58:49;;;;;;;11.75;7.70;;;16.50;73.10;;;;;;4966024;28;20056;-86
2022/05/07 07:01:19;;;;;;;12.52;7.13;;;16.60;72.90;;;;;;4975189;28;20061;-85
2022/05/07 07:03:46;;;;;;;11.60;7.13;;;16.60;72.80;;;;;;5003774;28;20489;-86
2022/05/07 07:06:13;;;;;;;10.27;7.28;;;16.70;72.60;;;;;;5006154;28;20050;-87
2022/05/07 07:08:40;;;;;;;12.30;7.32;;;16.70;72.30;;;;;;4984316;28;20038;-87
2022/05/07 07:11:09;;;;;;;10.73;6.95;;;16.70;72.10;;;;;;5000139;28;20103;-88
2022/05/07 07:13:36;;;;;;;11.73;8.23;;;16.80;72.10;;;;;;4999495;28;20041;-88
2022/05/07 07:16:04;;;;;;;13.25;7.78;;;16.80;71.90;;;;;;4976924;28;20081;-81
2022/05/07 07:18:31;;;;;;;11.57;8.30;;;16.90;71.70;;;;;;4999006;28;20398;-80
2022/05/07 07:20:58;;;;;;;11.43;7.72;;;17.00;71.60;;;;;;4999187;28;20494;-80
2022/05/07 07:23:25;;;;;;;11.02;7.10;;;17.00;71.40;;;;;;4985137;28;20068;-80
2022/05/07 07:25:53;;;;;;;14.10;8.07;;;17.20;71.30;;;;;;4979512;28;20410;-81
2022/05/07 07:28:20;;;;;;;11.88;8.13;;;17.20;71.20;;;;;;5005065;28;20042;-80
2022/05/07 07:30:47;;;;;;;13.95;7.88;;;17.30;71.10;;;;;;4982249;28;20046;-79
2022/05/07 07:33:14;;;;;;;12.25;7.28;;;17.40;70.90;;;;;;4999179;28;20041;-80
2022/05/07 07:35:43;;;;;;;9.75;6.38;;;17.60;70.70;;;;;;4993039;28;20084;-80
2022/05/07 07:38:11;;;;;;;11.05;7.03;;;17.70;70.40;;;;;;4979473;28;20512;-82
2022/05/07 07:40:39;;;;;;;13.45;8.00;;;17.90;70.20;;;;;;4995458;28;20053;-79
2022/05/07 07:43:06;;;;;;;12.13;7.63;;;18.00;70.00;;;;;;5011757;28;20042;-79
2022/05/07 07:48:19;;;;;;;12.98;8.07;;;18.00;69.70;;;;;;4997043;28;20100;-78
2022/05/07 07:50:48;;;;;;;12.57;7.70;;;18.00;69.80;;;;;;5011273;28;20405;-79
2022/05/07 07:53:15;;;;;;;12.38;7.80;;;18.00;69.80;;;;;;5011157;28;20045;-78
2022/05/07 07:55:42;;;;;;;12.88;6.25;;;17.90;69.80;;;;;;4991878;28;20046;-79
2022/05/07 07:58:11;;;;;;;12.40;7.30;;;18.00;69.90;;;;;;5009786;28;20042;-78
2022/05/07 08:00:38;;;;;;;9.57;6.20;;;18.00;69.60;;;;;;5011488;28;20050;-79
2022/05/07 08:03:12;;;;;;;9.43;5.78;;;18.10;69.60;;;;;;4977530;28;20051;-80
2022/05/07 08:05:40;;;;;;;8.85;5.32;;;18.20;69.40;;;;;;4995118;28;20049;-80
2022/05/07 08:13:44;;;;;;;13.02;5.30;;;18.30;68.70;;;;;;5010928;28;20482;-80
2022/05/07 08:16:13;;;;;;;8.68;5.35;;;18.40;68.10;;;;;;5011509;28;20080;-80
2022/05/07 08:18:41;;;;;;;9.10;6.00;;;18.50;67.40;;;;;;4978602;28;20053;-79
2022/05/07 08:21:09;;;;;;;11.80;7.35;;;18.60;67.10;;;;;;4992079;28;20050;-78
2022/05/07 08:23:38;;;;;;;11.55;6.47;;;18.70;66.50;;;;;;4992114;28;20064;-78
2022/05/07 08:26:06;;;;;;;9.75;5.85;;;18.70;66.10;;;;;;5014519;28;20052;-81
2022/05/07 08:28:37;;;;;;;10.90;6.00;;;18.80;66.10;;;;;;4979573;28;20045;-84
2022/05/07 08:31:06;;;;;;;8.90;4.90;;;18.90;65.80;;;;;;4996386;28;20049;-81
2022/05/07 08:33:34;;;;;;;10.65;5.63;;;19.10;65.50;;;;;;4998045;28;20053;-81
2022/05/07 08:36:01;;;;;;;9.88;5.25;;;19.20;65.20;;;;;;4979580;28;20050;-81
2022/05/07 08:38:28;;;;;;;10.73;5.40;;;19.30;64.90;;;;;;4997249;28;20108;-81
2022/05/07 08:41:00;;;;;;;10.88;5.25;;;19.40;64.40;;;;;;4986207;28;20096;-80
2022/05/07 08:43:42;;;;;;;10.23;5.97;;;19.50;64.40;;;;;;5014865;28;20045;-90
2022/05/07 08:46:10;;;;;;;10.07;4.80;;;19.60;64.10;;;;;;4998829;28;20045;-85
2022/05/07 08:48:42;;;;;;;10.30;5.40;;;19.70;64.10;;;;;;5015734;28;20041;-86
2022/05/07 08:51:10;;;;;;;8.43;4.90;;;19.80;63.80;;;;;;4997323;28;20047;-83
2022/05/07 08:53:37;;;;;;;6.43;3.85;;;20.00;63.40;;;;;;4998811;28;20042;-84
2022/05/07 08:56:07;;;;;;;8.52;3.83;;;20.10;63.30;;;;;;4986168;28;20522;-83
2022/05/07 08:58:34;;;;;;;5.90;3.33;;;20.30;63.20;;;;;;4998732;28;20568;-82
2022/05/07 09:01:01;;;;;;;5.82;3.63;;;20.40;62.90;;;;;;4982509;28;20049;-84
2022/05/07 09:03:45;;;;;;;6.50;3.92;;;20.50;62.50;;;;;;4998846;28;20065;-84
2022/05/07 09:06:21;;;;;;;8.63;4.13;;;20.60;62.30;;;;;;4998186;28;20046;-85
2022/05/07 09:08:49;;;;;;;9.32;3.60;;;20.70;62.00;;;;;;5002208;28;20159;-86
2022/05/07 09:11:17;;;;;;;6.40;3.53;;;20.80;62.00;;;;;;4981796;28;20099;-85
2022/05/07 09:13:59;;;;;;;8.35;3.97;;;20.80;61.70;;;;;;5031066;28;20077;-85
2022/05/07 09:16:39;;;;;;;7.57;3.15;;;20.90;61.40;;;;;;4998281;28;20048;-85
2022/05/07 09:19:21;;;;;;;7.15;3.80;;;20.90;61.40;;;;;;4998434;28;20080;-86
2022/05/07 09:21:49;;;;;;;7.90;4.00;;;21.00;61.20;;;;;;4996845;28;20042;-86
2022/05/07 09:24:17;;;;;;;9.13;4.10;;;21.10;61.00;;;;;;4998101;28;20050;-86
2022/05/07 09:26:44;;;;;;;7.22;3.78;;;21.20;60.70;;;;;;5014401;28;20096;-86
2022/05/07 09:29:14;;;;;;;6.47;2.92;;;21.30;60.50;;;;;;5014719;28;20038;-85
2022/05/07 09:31:43;;;;;;;6.53;3.30;;;21.40;60.50;;;;;;4998266;28;20096;-87
2022/05/07 09:37:12;;;;;;;9.07;4.55;;;21.60;60.00;;;;;;5009241;28;20058;-86
2022/05/07 09:39:39;;;;;;;9.90;4.65;;;21.60;59.20;;;;;;5013578;28;20046;-86
2022/05/07 09:42:07;;;;;;;8.00;4.13;;;21.70;59.10;;;;;;5013868;28;20490;-85
2022/05/07 09:44:35;;;;;;;9.18;3.95;;;21.70;59.00;;;;;;4982403;28;20089;-86
2022/05/07 09:47:04;;;;;;;6.32;4.00;;;21.90;58.70;;;;;;5014325;28;20041;-87
2022/05/07 09:49:33;;;;;;;5.47;3.10;;;21.90;57.90;;;;;;5013252;28;20494;-86
2022/05/07 09:52:03;;;;;;;7.15;3.38;;;21.90;58.50;;;;;;5014546;28;20044;-86
2022/05/07 09:57:33;;;;;;;6.05;3.38;;;22.10;57.50;;;;;;5001557;28;20391;-87
2022/05/07 10:00:10;;;;;;;8.20;4.70;;;22.20;57.30;;;;;;4998173;28;20046;-88
2022/05/07 10:02:58;;;;;;;6.18;3.95;;;22.30;56.20;;;;;;5014055;28;20487;-87
2022/05/07 10:05:41;;;;;;;6.20;3.30;;;22.40;56.60;;;;;;4989564;28;20410;-87
2022/05/07 10:08:40;;;;;;;5.57;3.00;;;22.60;56.50;;;;;;5009166;28;20053;-85
2022/05/07 10:11:12;;;;;;;4.93;2.80;;;22.70;56.30;;;;;;4987098;28;20491;-92
2022/05/07 10:13:39;;;;;;;4.50;2.80;;;22.90;56.20;;;;;;5013296;28;20038;-85
2022/05/07 10:16:07;;;;;;;5.53;2.65;;;22.90;56.10;;;;;;4997633;28;20506;-85
2022/05/07 10:18:38;;;;;;;5.82;3.22;;;22.90;56.20;;;;;;5012938;28;20125;-85
2022/05/07 10:21:14;;;;;;;6.90;2.92;;;22.90;56.00;;;;;;4979337;28;20054;-85
2022/05/07 10:23:55;;;;;;;6.15;3.05;;;22.70;55.90;;;;;;4996700;28;20050;-85
2022/05/07 10:26:45;;;;;;;6.90;3.08;;;22.80;56.00;;;;;;4993205;28;20065;-85
2022/05/07 10:29:25;;;;;;;4.38;2.45;;;22.90;55.80;;;;;;5030221;28;20509;-84
2022/05/07 10:32:03;;;;;;;6.18;2.85;;;23.20;55.50;;;;;;4997756;28;20617;-84
2022/05/07 10:34:31;;;;;;;8.93;3.70;;;23.40;55.20;;;;;;4981056;28;20065;-84
2022/05/07 10:37:07;;;;;;;7.15;3.63;;;23.40;54.50;;;;;;4981062;28;20050;-82
2022/05/07 10:39:36;;;;;;;5.90;3.42;;;23.30;54.40;;;;;;4993534;28;20046;-88
2022/05/07 10:42:16;;;;;;;7.57;3.15;;;23.10;54.60;;;;;;4997449;28;20104;-87
2022/05/07 10:44:44;;;;;;;3.83;1.98;;;23.00;54.90;;;;;;5012203;28;20049;-87
2022/05/07 10:47:13;;;;;;;5.45;2.38;;;23.00;55.30;;;;;;4985523;28;20047;-88
2022/05/07 10:50:13;;;;;;;4.25;2.28;;;23.30;54.90;;;;;;5009188;28;20038;-87
2022/05/07 10:52:41;;;;;;;6.88;2.80;;;23.80;54.20;;;;;;4999678;28;20057;-87
2022/05/07 10:55:12;;;;;;;7.00;3.63;;;24.20;53.50;;;;;;5012883;28;20140;-87
2022/05/07 10:57:47;;;;;;;4.20;2.50;;;24.10;53.20;;;;;;5045451;28;20056;-86
2022/05/07 11:00:15;;;;;;;7.72;3.78;;;23.90;53.40;;;;;;4999535;28;20042;-87
2022/05/07 11:02:43;;;;;;;4.85;2.63;;;23.60;53.10;;;;;;5012901;28;20081;-86
2022/05/07 11:05:11;;;;;;;5.35;2.55;;;23.40;53.60;;;;;;4996168;28;20038;-87
2022/05/07 11:07:40;;;;;;;5.03;2.42;;;23.70;53.60;;;;;;4996828;28;20038;-86
2022/05/07 11:10:11;;;;;;;5.07;2.70;;;24.30;52.50;;;;;;4981311;28;20068;-86
2022/05/07 11:12:42;;;;;;;8.80;3.50;;;24.70;52.20;;;;;;4996766;28;20042;-86
2022/05/07 11:15:10;;;;;;;6.27;2.57;;;24.90;50.80;;;;;;4996141;28;20471;-85
2022/05/07 11:17:41;;;;;;;6.32;2.92;;;24.70;50.90;;;;;;4980228;28;20061;-86
2022/05/07 11:20:11;;;;;;;4.90;2.33;;;24.40;50.90;;;;;;4993455;28;20045;-86
2022/05/07 11:22:40;;;;;;;4.75;2.38;;;24.10;51.60;;;;;;4980586;28;20112;-86
2022/05/07 11:25:10;;;;;;;7.15;3.10;;;24.10;51.90;;;;;;4993405;28;20042;-87
2022/05/07 11:27:37;;;;;;;5.10;2.42;;;23.90;52.10;;;;;;4994402;28;20044;-85
2022/05/07 11:30:05;;;;;;;4.47;2.47;;;23.80;52.60;;;;;;4976714;28;20137;-86
2022/05/07 11:32:40;;;;;;;6.18;3.13;;;23.60;52.70;;;;;;4996158;28;20053;-85
2022/05/07 11:35:08;;;;;;;6.28;3.25;;;23.40;52.40;;;;;;4995654;28;20038;-85
2022/05/07 11:37:41;;;;;;;8.13;3.83;;;23.30;52.70;;;;;;5011770;28;20053;-85
2022/05/07 11:40:10;;;;;;;5.78;3.22;;;23.10;52.80;;;;;;4995780;28;20173;-86
2022/05/07 11:42:46;;;;;;;5.95;3.15;;;22.90;53.20;;;;;;4995657;28;20057;-85
2022/05/07 11:45:33;;;;;;;7.20;3.78;;;22.90;53.30;;;;;;5012529;28;20069;-84
2022/05/07 11:48:13;;;;;;;5.50;3.25;;;22.80;53.30;;;;;;4972251;28;20048;-85
2022/05/07 11:50:50;;;;;;;5.13;3.10;;;22.80;53.70;;;;;;5003722;28;20033;-84
2022/05/07 11:53:19;;;;;;;4.95;2.90;;;22.60;54.40;;;;;;4991753;28;20050;-86
2022/05/07 11:55:48;;;;;;;4.65;2.75;;;22.50;54.10;;;;;;4968666;28;20050;-86
2022/05/07 11:58:16;;;;;;;4.40;2.33;;;22.40;54.30;;;;;;4995030;28;20049;-86
2022/05/07 12:00:46;;;;;;;5.00;2.55;;;22.20;54.40;;;;;;4994919;28;20064;-82
2022/05/07 12:03:24;;;;;;;8.27;3.05;;;22.10;54.70;;;;;;4983938;28;20046;-82
2022/05/07 12:05:54;;;;;;;6.80;3.10;;;21.90;55.10;;;;;;5011345;28;20053;-86
2022/05/07 12:08:24;;;;;;;7.78;4.05;;;21.50;56.00;;;;;;4995165;28;20351;-86
2022/05/07 12:10:54;;;;;;;11.40;5.50;;;21.00;59.00;;;;;;4994389;28;20046;-80
2022/05/07 12:13:47;;;;;;;13.80;5.72;;;19.90;64.90;;;;;;5010383;28;20124;-88
2022/05/07 12:20:11;;;;;;;7.10;3.53;;;17.60;73.60;;;;;;4998825;28;20049;-84
2022/05/07 12:31:57;;;;;;;6.40;3.03;;;17.40;74.90;;;;;;5011095;28;20053;-88
2022/05/07 12:34:45;;;;;;;6.55;2.17;;;17.40;75.10;;;;;;4983759;28;20034;-85
2022/05/07 12:37:38;;;;;;;5.93;2.40;;;17.40;76.60;;;;;;4983029;28;20082;-86
2022/05/07 12:40:53;;;;;;;6.13;2.88;;;17.30;76.40;;;;;;4976157;28;20046;-85
2022/05/07 12:44:34;;;;;;;4.32;2.30;;;17.40;76.50;;;;;;5000446;28;20050;-86
2022/05/07 12:47:19;;;;;;;4.40;2.17;;;17.40;76.50;;;;;;5009389;28;20046;-87
2022/05/07 12:51:00;;;;;;;8.20;3.35;;;17.50;76.60;;;;;;4995886;28;20042;-86
2022/05/07 12:53:54;;;;;;;4.47;2.08;;;17.70;76.60;;;;;;5000154;28;20049;-87
2022/05/07 12:56:22;;;;;;;5.03;1.75;;;17.90;76.40;;;;;;4981573;28;20046;-90
2022/05/07 12:58:53;;;;;;;4.15;1.95;;;18.50;76.00;;;;;;4992387;28;20460;-85
2022/05/07 13:01:23;;;;;;;5.45;2.45;;;19.60;74.40;;;;;;5007672;28;20191;-86
2022/05/07 13:03:50;;;;;;;3.95;1.88;;;20.90;72.20;;;;;;4979313;28;20057;-85
2022/05/07 13:06:21;;;;;;;4.20;2.22;;;21.20;71.10;;;;;;4995427;28;20049;-86
2022/05/07 13:08:52;;;;;;;4.72;2.47;;;21.40;70.80;;;;;;4976839;28;20046;-87
2022/05/07 13:11:22;;;;;;;6.75;3.45;;;21.20;70.90;;;;;;4992013;28;20072;-83
2022/05/07 13:13:49;;;;;;;6.30;2.90;;;20.80;71.60;;;;;;5014918;28;20077;-83
2022/05/07 13:16:20;;;;;;;9.25;4.00;;;20.70;72.40;;;;;;4982658;28;20084;-88
2022/05/07 13:18:50;;;;;;;12.07;4.35;;;20.50;72.90;;;;;;5015417;28;20497;-86
2022/05/07 13:21:22;;;;;;;6.97;3.33;;;21.10;72.50;;;;;;5014549;28;20042;-80
2022/05/07 13:23:50;;;;;;;5.30;3.17;;;21.90;70.40;;;;;;4998107;28;20070;-87
2022/05/07 13:26:17;;;;;;;5.10;3.10;;;22.50;69.00;;;;;;5012172;28;20050;-89
2022/05/07 13:29:15;;;;;;;5.22;2.92;;;23.00;68.00;;;;;;4999919;28;20058;-85
2022/05/07 13:31:45;;;;;;;4.63;2.10;;;23.70;66.70;;;;;;4998569;28;20061;-91
2022/05/07 13:34:12;;;;;;;5.25;2.65;;;23.70;65.60;;;;;;4985027;28;20137;-89
2022/05/07 13:36:40;;;;;;;4.07;1.85;;;23.50;65.10;;;;;;4998106;28;20056;-88
2022/05/07 13:39:07;;;;;;;4.47;1.55;;;23.30;65.80;;;;;;4985342;28;20050;-87
2022/05/07 13:41:37;;;;;;;4.05;1.30;;;23.00;65.90;;;;;;5013604;28;20058;-88
2022/05/07 13:44:10;;;;;;;2.72;1.30;;;22.50;66.50;;;;;;4998606;28;20494;-88
2022/05/07 13:46:38;;;;;;;2.30;1.20;;;22.10;67.10;;;;;;4982026;28;20096;-85
2022/05/07 13:49:10;;;;;;;2.35;0.80;;;21.80;67.90;;;;;;4997354;28;20049;-85
2022/05/07 13:51:37;;;;;;;2.83;1.23;;;21.70;68.30;;;;;;4981561;28;20540;-88